Silverdale, Kansas
Current Conditions -  °F | °C
As of 4:54 PM on Saturday 20 Dec 2014 (Local Time) from KWLD Reporting Station
Overcast Overcast  
Wind Chill: 40°   Ceiling: 2500
Heat Index: 45°   Visibility: 10mi
Dew Point: 36°   Wind: 10mph
Humidity: 71%   Direction: 190°S
Pressure: 30.12"   Gusts: NA
Location:  37.0955°N, 96.9739°W
Report Text: KWLD 202254Z AUTO 19009KT 10SM OVC025 07/02 A3012 RMK AO2 SLP205 T00720022
Loading
Personal Weather Stations






























Interactive Weather Map New forecast layout! Learn more

10-Day Weather Forecast

Advertisements
Track Severe Weather on mobile